sensor_id;sensor_type;location;lat;lon;timestamp;P1;durP1;ratioP1;P2;durP2;ratioP2
3299;SDS011;1662;49.310;8.134;2022-10-17T00:01:52;4.93;;;4.10;;
3299;SDS011;1662;49.310;8.134;2022-10-17T00:04:18;3.93;;;3.73;;
3299;SDS011;1662;49.310;8.134;2022-10-17T00:06:43;4.30;;;3.90;;
3299;SDS011;1662;49.310;8.134;2022-10-17T00:09:09;6.10;;;4.33;;
3299;SDS011;1662;49.310;8.134;2022-10-17T00:11:34;4.93;;;4.30;;
3299;SDS011;1662;49.310;8.134;2022-10-17T00:14:00;5.53;;;3.83;;
3299;SDS011;1662;49.310;8.134;2022-10-17T00:16:27;4.70;;;3.97;;
3299;SDS011;1662;49.310;8.134;2022-10-17T00:18:55;4.80;;;4.50;;
3299;SDS011;1662;49.310;8.134;2022-10-17T00:21:22;4.80;;;4.50;;
3299;SDS011;1662;49.310;8.134;2022-10-17T00:23:48;5.07;;;4.77;;
3299;SDS011;1662;49.310;8.134;2022-10-17T00:26:14;5.00;;;4.50;;
3299;SDS011;1662;49.310;8.134;2022-10-17T00:28:40;4.37;;;4.07;;
3299;SDS011;1662;49.310;8.134;2022-10-17T00:31:06;6.90;;;5.50;;
3299;SDS011;1662;49.310;8.134;2022-10-17T00:33:34;5.00;;;4.53;;
3299;SDS011;1662;49.310;8.134;2022-10-17T00:36:14;4.90;;;4.40;;
3299;SDS011;1662;49.310;8.134;2022-10-17T00:38:48;9.77;;;4.20;;
3299;SDS011;1662;49.310;8.134;2022-10-17T00:41:23;4.70;;;4.40;;
3299;SDS011;1662;49.310;8.134;2022-10-17T00:44:00;4.70;;;4.33;;
3299;SDS011;1662;49.310;8.134;2022-10-17T00:46:33;5.30;;;4.80;;
3299;SDS011;1662;49.310;8.134;2022-10-17T00:49:09;4.73;;;4.33;;
3299;SDS011;1662;49.310;8.134;2022-10-17T00:51:37;5.00;;;4.43;;
3299;SDS011;1662;49.310;8.134;2022-10-17T00:54:07;10.10;;;5.03;;
3299;SDS011;1662;49.310;8.134;2022-10-17T00:56:35;5.20;;;4.90;;
3299;SDS011;1662;49.310;8.134;2022-10-17T00:59:01;4.53;;;4.30;;
3299;SDS011;1662;49.310;8.134;2022-10-17T01:01:27;5.20;;;4.77;;
3299;SDS011;1662;49.310;8.134;2022-10-17T01:03:52;7.10;;;5.37;;
3299;SDS011;1662;49.310;8.134;2022-10-17T01:06:20;6.53;;;5.93;;
3299;SDS011;1662;49.310;8.134;2022-10-17T01:08:48;5.30;;;4.90;;
3299;SDS011;1662;49.310;8.134;2022-10-17T01:14:05;8.70;;;4.80;;
3299;SDS011;1662;49.310;8.134;2022-10-17T01:21:54;5.37;;;4.73;;
3299;SDS011;1662;49.310;8.134;2022-10-17T01:27:41;5.57;;;5.07;;
3299;SDS011;1662;49.310;8.134;2022-10-17T01:33:08;7.47;;;5.70;;
3299;SDS011;1662;49.310;8.134;2022-10-17T01:38:17;10.30;;;4.97;;
3299;SDS011;1662;49.310;8.134;2022-10-17T01:43:25;5.83;;;5.33;;
3299;SDS011;1662;49.310;8.134;2022-10-17T01:49:02;4.70;;;4.40;;
3299;SDS011;1662;49.310;8.134;2022-10-17T01:51:31;7.33;;;4.90;;
3299;SDS011;1662;49.310;8.134;2022-10-17T01:54:10;5.00;;;4.70;;
3299;SDS011;1662;49.310;8.134;2022-10-17T01:56:55;4.47;;;4.07;;
3299;SDS011;1662;49.310;8.134;2022-10-17T01:59:36;10.90;;;6.20;;
3299;SDS011;1662;49.310;8.134;2022-10-17T02:02:05;4.63;;;4.23;;
3299;SDS011;1662;49.310;8.134;2022-10-17T02:04:31;5.30;;;4.27;;
3299;SDS011;1662;49.310;8.134;2022-10-17T02:07:04;5.30;;;4.40;;
3299;SDS011;1662;49.310;8.134;2022-10-17T02:09:31;4.17;;;3.77;;
3299;SDS011;1662;49.310;8.134;2022-10-17T02:14:50;4.40;;;4.10;;
3299;SDS011;1662;49.310;8.134;2022-10-17T02:25:08;7.23;;;4.53;;
3299;SDS011;1662;49.310;8.134;2022-10-17T02:30:40;5.33;;;4.90;;
3299;SDS011;1662;49.310;8.134;2022-10-17T02:33:15;6.53;;;5.13;;
3299;SDS011;1662;49.310;8.134;2022-10-17T02:35:55;5.30;;;4.80;;
3299;SDS011;1662;49.310;8.134;2022-10-17T02:38:27;5.27;;;4.97;;
3299;SDS011;1662;49.310;8.134;2022-10-17T02:40:54;5.60;;;5.10;;
3299;SDS011;1662;49.310;8.134;2022-10-17T02:43:20;5.13;;;4.77;;
3299;SDS011;1662;49.310;8.134;2022-10-17T02:45:48;5.27;;;4.77;;
3299;SDS011;1662;49.310;8.134;2022-10-17T02:48:21;5.87;;;5.00;;
3299;SDS011;1662;49.310;8.134;2022-10-17T02:53:36;4.60;;;4.30;;
3299;SDS011;1662;49.310;8.134;2022-10-17T02:56:17;11.13;;;4.77;;
3299;SDS011;1662;49.310;8.134;2022-10-17T02:58:54;8.20;;;5.20;;
3299;SDS011;1662;49.310;8.134;2022-10-17T03:01:23;5.30;;;4.90;;
3299;SDS011;1662;49.310;8.134;2022-10-17T03:03:49;9.60;;;6.10;;
3299;SDS011;1662;49.310;8.134;2022-10-17T03:06:15;5.93;;;5.43;;
3299;SDS011;1662;49.310;8.134;2022-10-17T03:08:41;5.60;;;5.07;;
3299;SDS011;1662;49.310;8.134;2022-10-17T03:11:07;7.43;;;5.13;;
3299;SDS011;1662;49.310;8.134;2022-10-17T03:13:32;7.27;;;5.03;;
3299;SDS011;1662;49.310;8.134;2022-10-17T03:15:58;5.73;;;5.17;;
3299;SDS011;1662;49.310;8.134;2022-10-17T03:18:23;7.17;;;5.43;;
3299;SDS011;1662;49.310;8.134;2022-10-17T03:20:49;21.90;;;7.77;;
3299;SDS011;1662;49.310;8.134;2022-10-17T03:23:15;7.63;;;6.93;;
3299;SDS011;1662;49.310;8.134;2022-10-17T03:25:40;7.93;;;6.70;;
3299;SDS011;1662;49.310;8.134;2022-10-17T03:28:06;5.73;;;5.33;;
3299;SDS011;1662;49.310;8.134;2022-10-17T03:30:33;5.90;;;5.30;;
3299;SDS011;1662;49.310;8.134;2022-10-17T03:32:58;9.57;;;6.50;;
3299;SDS011;1662;49.310;8.134;2022-10-17T03:35:25;6.07;;;5.57;;
3299;SDS011;1662;49.310;8.134;2022-10-17T03:37:51;6.80;;;6.20;;
3299;SDS011;1662;49.310;8.134;2022-10-17T03:40:24;9.13;;;5.50;;
3299;SDS011;1662;49.310;8.134;2022-10-17T03:42:50;8.93;;;5.90;;
3299;SDS011;1662;49.310;8.134;2022-10-17T03:45:15;9.30;;;5.83;;
3299;SDS011;1662;49.310;8.134;2022-10-17T03:47:43;8.27;;;6.30;;
3299;SDS011;1662;49.310;8.134;2022-10-17T03:50:09;6.80;;;6.20;;
3299;SDS011;1662;49.310;8.134;2022-10-17T03:52:34;7.77;;;6.93;;
3299;SDS011;1662;49.310;8.134;2022-10-17T03:55:00;13.50;;;6.97;;
3299;SDS011;1662;49.310;8.134;2022-10-17T03:57:25;5.90;;;5.50;;
3299;SDS011;1662;49.310;8.134;2022-10-17T03:59:51;11.10;;;5.90;;
3299;SDS011;1662;49.310;8.134;2022-10-17T04:02:16;7.03;;;5.57;;
3299;SDS011;1662;49.310;8.134;2022-10-17T04:04:42;11.93;;;5.30;;
3299;SDS011;1662;49.310;8.134;2022-10-17T04:07:08;11.23;;;5.30;;
3299;SDS011;1662;49.310;8.134;2022-10-17T04:09:33;8.10;;;5.57;;
3299;SDS011;1662;49.310;8.134;2022-10-17T04:11:59;12.03;;;6.47;;
3299;SDS011;1662;49.310;8.134;2022-10-17T04:14:27;5.27;;;4.80;;
3299;SDS011;1662;49.310;8.134;2022-10-17T04:16:55;10.63;;;5.70;;
3299;SDS011;1662;49.310;8.134;2022-10-17T04:19:20;6.40;;;5.47;;
3299;SDS011;1662;49.310;8.134;2022-10-17T04:21:46;5.60;;;5.20;;
3299;SDS011;1662;49.310;8.134;2022-10-17T04:24:14;8.40;;;6.50;;
3299;SDS011;1662;49.310;8.134;2022-10-17T04:26:40;7.87;;;6.13;;
3299;SDS011;1662;49.310;8.134;2022-10-17T04:29:05;13.93;;;7.20;;
3299;SDS011;1662;49.310;8.134;2022-10-17T04:31:31;12.33;;;6.50;;
3299;SDS011;1662;49.310;8.134;2022-10-17T04:33:56;8.70;;;5.57;;
3299;SDS011;1662;49.310;8.134;2022-10-17T04:36:22;8.40;;;6.30;;
3299;SDS011;1662;49.310;8.134;2022-10-17T04:38:50;6.90;;;6.30;;
3299;SDS011;1662;49.310;8.134;2022-10-17T04:41:16;6.47;;;6.00;;
3299;SDS011;1662;49.310;8.134;2022-10-17T04:43:43;10.13;;;6.13;;
3299;SDS011;1662;49.310;8.134;2022-10-17T04:46:10;7.73;;;7.03;;
3299;SDS011;1662;49.310;8.134;2022-10-17T04:48:37;7.00;;;6.40;;
3299;SDS011;1662;49.310;8.134;2022-10-17T04:51:05;7.90;;;6.53;;
3299;SDS011;1662;49.310;8.134;2022-10-17T04:53:32;8.50;;;7.70;;
3299;SDS011;1662;49.310;8.134;2022-10-17T04:55:59;8.90;;;7.23;;
3299;SDS011;1662;49.310;8.134;2022-10-17T04:58:27;8.60;;;7.80;;
3299;SDS011;1662;49.310;8.134;2022-10-17T05:00:52;7.37;;;6.77;;
3299;SDS011;1662;49.310;8.134;2022-10-17T05:03:18;9.13;;;6.90;;
3299;SDS011;1662;49.310;8.134;2022-10-17T05:05:44;9.33;;;6.43;;
3299;SDS011;1662;49.310;8.134;2022-10-17T05:08:12;11.63;;;7.33;;
3299;SDS011;1662;49.310;8.134;2022-10-17T05:10:38;10.37;;;6.70;;
3299;SDS011;1662;49.310;8.134;2022-10-17T05:13:08;7.37;;;6.80;;
3299;SDS011;1662;49.310;8.134;2022-10-17T05:15:34;7.40;;;6.80;;
3299;SDS011;1662;49.310;8.134;2022-10-17T05:18:01;7.03;;;6.37;;
3299;SDS011;1662;49.310;8.134;2022-10-17T05:20:27;11.13;;;6.30;;
3299;SDS011;1662;49.310;8.134;2022-10-17T05:22:52;8.40;;;6.87;;
3299;SDS011;1662;49.310;8.134;2022-10-17T05:25:21;8.47;;;7.67;;
3299;SDS011;1662;49.310;8.134;2022-10-17T05:27:46;9.73;;;7.27;;
3299;SDS011;1662;49.310;8.134;2022-10-17T05:30:12;7.20;;;6.50;;
3299;SDS011;1662;49.310;8.134;2022-10-17T05:32:37;7.83;;;6.90;;
3299;SDS011;1662;49.310;8.134;2022-10-17T05:35:03;6.90;;;6.40;;
3299;SDS011;1662;49.310;8.134;2022-10-17T05:37:30;7.90;;;7.20;;
3299;SDS011;1662;49.310;8.134;2022-10-17T05:39:56;8.83;;;7.13;;
3299;SDS011;1662;49.310;8.134;2022-10-17T05:42:24;7.50;;;6.60;;
3299;SDS011;1662;49.310;8.134;2022-10-17T05:44:49;7.87;;;7.00;;
3299;SDS011;1662;49.310;8.134;2022-10-17T05:47:15;7.67;;;6.30;;
3299;SDS011;1662;49.310;8.134;2022-10-17T05:49:41;6.63;;;6.10;;
3299;SDS011;1662;49.310;8.134;2022-10-17T05:52:06;9.83;;;7.40;;
3299;SDS011;1662;49.310;8.134;2022-10-17T05:54:32;11.33;;;7.23;;
3299;SDS011;1662;49.310;8.134;2022-10-17T05:56:58;8.90;;;7.93;;
3299;SDS011;1662;49.310;8.134;2022-10-17T05:59:26;8.70;;;7.53;;
3299;SDS011;1662;49.310;8.134;2022-10-17T06:01:52;12.67;;;8.37;;
3299;SDS011;1662;49.310;8.134;2022-10-17T06:04:18;10.80;;;7.00;;
3299;SDS011;1662;49.310;8.134;2022-10-17T06:06:44;9.60;;;7.00;;
3299;SDS011;1662;49.310;8.134;2022-10-17T06:09:10;7.20;;;6.60;;
3299;SDS011;1662;49.310;8.134;2022-10-17T06:11:35;7.47;;;6.77;;
3299;SDS011;1662;49.310;8.134;2022-10-17T06:14:01;8.40;;;7.03;;
3299;SDS011;1662;49.310;8.134;2022-10-17T06:16:27;7.73;;;7.13;;
3299;SDS011;1662;49.310;8.134;2022-10-17T06:18:53;8.17;;;7.37;;
3299;SDS011;1662;49.310;8.134;2022-10-17T06:21:22;7.70;;;7.00;;
3299;SDS011;1662;49.310;8.134;2022-10-17T06:23:49;8.87;;;8.13;;
3299;SDS011;1662;49.310;8.134;2022-10-17T06:26:16;8.40;;;7.60;;
3299;SDS011;1662;49.310;8.134;2022-10-17T06:28:42;9.77;;;8.30;;
3299;SDS011;1662;49.310;8.134;2022-10-17T06:31:11;10.37;;;8.47;;
3299;SDS011;1662;49.310;8.134;2022-10-17T06:33:38;9.10;;;8.20;;
3299;SDS011;1662;49.310;8.134;2022-10-17T06:36:04;12.00;;;9.57;;
3299;SDS011;1662;49.310;8.134;2022-10-17T06:38:31;8.23;;;6.20;;
3299;SDS011;1662;49.310;8.134;2022-10-17T06:41:02;9.23;;;8.33;;
3299;SDS011;1662;49.310;8.134;2022-10-17T06:43:33;9.17;;;8.13;;
3299;SDS011;1662;49.310;8.134;2022-10-17T06:46:01;9.43;;;8.10;;
3299;SDS011;1662;49.310;8.134;2022-10-17T06:48:27;8.90;;;8.00;;
3299;SDS011;1662;49.310;8.134;2022-10-17T06:50:53;10.77;;;8.73;;
3299;SDS011;1662;49.310;8.134;2022-10-17T06:53:23;10.20;;;8.90;;
3299;SDS011;1662;49.310;8.134;2022-10-17T06:55:54;9.63;;;7.90;;
3299;SDS011;1662;49.310;8.134;2022-10-17T06:58:22;8.67;;;7.60;;
3299;SDS011;1662;49.310;8.134;2022-10-17T07:00:47;10.83;;;8.20;;
3299;SDS011;1662;49.310;8.134;2022-10-17T07:03:13;11.10;;;8.50;;
3299;SDS011;1662;49.310;8.134;2022-10-17T07:05:38;11.43;;;8.20;;
3299;SDS011;1662;49.310;8.134;2022-10-17T07:08:04;9.40;;;8.60;;
3299;SDS011;1662;49.310;8.134;2022-10-17T07:10:30;10.20;;;9.20;;
3299;SDS011;1662;49.310;8.134;2022-10-17T07:13:02;9.83;;;8.93;;
3299;SDS011;1662;49.310;8.134;2022-10-17T07:15:27;10.57;;;9.20;;
3299;SDS011;1662;49.310;8.134;2022-10-17T07:17:53;12.30;;;8.93;;
3299;SDS011;1662;49.310;8.134;2022-10-17T07:20:18;9.00;;;8.10;;
3299;SDS011;1662;49.310;8.134;2022-10-17T07:22:44;8.70;;;7.87;;
3299;SDS011;1662;49.310;8.134;2022-10-17T07:25:10;10.30;;;9.33;;
3299;SDS011;1662;49.310;8.134;2022-10-17T07:27:35;13.67;;;9.47;;
3299;SDS011;1662;49.310;8.134;2022-10-17T07:30:01;9.60;;;8.80;;
3299;SDS011;1662;49.310;8.134;2022-10-17T07:32:26;10.13;;;9.20;;
3299;SDS011;1662;49.310;8.134;2022-10-17T07:34:54;17.03;;;10.07;;
3299;SDS011;1662;49.310;8.134;2022-10-17T07:37:20;10.73;;;9.63;;
3299;SDS011;1662;49.310;8.134;2022-10-17T07:39:45;12.87;;;10.13;;
3299;SDS011;1662;49.310;8.134;2022-10-17T07:42:11;10.70;;;9.60;;
3299;SDS011;1662;49.310;8.134;2022-10-17T07:44:38;9.07;;;8.17;;
3299;SDS011;1662;49.310;8.134;2022-10-17T07:47:04;11.77;;;9.87;;
3299;SDS011;1662;49.310;8.134;2022-10-17T07:49:29;11.33;;;8.80;;
3299;SDS011;1662;49.310;8.134;2022-10-17T07:51:55;12.10;;;9.00;;
3299;SDS011;1662;49.310;8.134;2022-10-17T07:54:21;9.63;;;8.73;;
3299;SDS011;1662;49.310;8.134;2022-10-17T07:56:47;15.07;;;9.20;;
3299;SDS011;1662;49.310;8.134;2022-10-17T07:59:15;10.90;;;9.90;;
3299;SDS011;1662;49.310;8.134;2022-10-17T08:01:44;11.33;;;10.10;;
3299;SDS011;1662;49.310;8.134;2022-10-17T08:04:09;9.70;;;8.57;;
3299;SDS011;1662;49.310;8.134;2022-10-17T08:06:35;12.10;;;9.33;;
3299;SDS011;1662;49.310;8.134;2022-10-17T08:09:01;19.47;;;10.13;;
3299;SDS011;1662;49.310;8.134;2022-10-17T08:11:29;9.70;;;8.80;;
3299;SDS011;1662;49.310;8.134;2022-10-17T08:13:55;10.93;;;9.80;;
3299;SDS011;1662;49.310;8.134;2022-10-17T08:16:20;8.47;;;7.57;;
3299;SDS011;1662;49.310;8.134;2022-10-17T08:18:46;14.83;;;9.07;;
3299;SDS011;1662;49.310;8.134;2022-10-17T08:21:11;16.00;;;10.53;;
3299;SDS011;1662;49.310;8.134;2022-10-17T08:23:37;9.57;;;8.60;;
3299;SDS011;1662;49.310;8.134;2022-10-17T08:26:04;11.37;;;9.97;;
3299;SDS011;1662;49.310;8.134;2022-10-17T08:28:34;17.73;;;9.43;;
3299;SDS011;1662;49.310;8.134;2022-10-17T08:33:30;12.13;;;10.40;;
3299;SDS011;1662;49.310;8.134;2022-10-17T08:35:59;11.07;;;9.90;;
3299;SDS011;1662;49.310;8.134;2022-10-17T08:38:27;10.20;;;9.10;;
3299;SDS011;1662;49.310;8.134;2022-10-17T08:40:54;12.10;;;9.20;;
3299;SDS011;1662;49.310;8.134;2022-10-17T08:43:27;10.63;;;9.63;;
3299;SDS011;1662;49.310;8.134;2022-10-17T08:46:07;10.77;;;8.73;;
3299;SDS011;1662;49.310;8.134;2022-10-17T08:48:36;8.90;;;8.03;;
3299;SDS011;1662;49.310;8.134;2022-10-17T08:53:51;12.00;;;9.50;;
3299;SDS011;1662;49.310;8.134;2022-10-17T08:56:45;9.13;;;8.23;;
3299;SDS011;1662;49.310;8.134;2022-10-17T08:59:32;9.77;;;8.87;;
3299;SDS011;1662;49.310;8.134;2022-10-17T09:02:44;8.53;;;7.70;;
3299;SDS011;1662;49.310;8.134;2022-10-17T09:18:36;7.70;;;6.90;;
3299;SDS011;1662;49.310;8.134;2022-10-17T09:23:59;7.53;;;7.00;;
3299;SDS011;1662;49.310;8.134;2022-10-17T09:26:28;9.03;;;7.57;;
3299;SDS011;1662;49.310;8.134;2022-10-17T09:28:55;7.30;;;6.77;;
3299;SDS011;1662;49.310;8.134;2022-10-17T09:33:59;7.77;;;6.97;;
3299;SDS011;1662;49.310;8.134;2022-10-17T09:36:33;8.30;;;7.50;;
3299;SDS011;1662;49.310;8.134;2022-10-17T09:39:24;7.70;;;6.20;;
3299;SDS011;1662;49.310;8.134;2022-10-17T09:41:56;7.13;;;6.40;;
3299;SDS011;1662;49.310;8.134;2022-10-17T09:49:45;8.57;;;5.93;;
3299;SDS011;1662;49.310;8.134;2022-10-17T09:52:25;5.90;;;5.40;;
3299;SDS011;1662;49.310;8.134;2022-10-17T09:55:02;6.47;;;5.67;;
3299;SDS011;1662;49.310;8.134;2022-10-17T10:00:29;5.73;;;5.17;;
3299;SDS011;1662;49.310;8.134;2022-10-17T10:03:12;8.37;;;5.77;;
3299;SDS011;1662;49.310;8.134;2022-10-17T10:05:40;6.20;;;5.63;;
3299;SDS011;1662;49.310;8.134;2022-10-17T10:08:12;5.20;;;4.90;;
3299;SDS011;1662;49.310;8.134;2022-10-17T10:10:40;5.03;;;4.63;;
3299;SDS011;1662;49.310;8.134;2022-10-17T10:15:39;4.60;;;4.33;;
3299;SDS011;1662;49.310;8.134;2022-10-17T10:26:24;3.63;;;3.33;;
3299;SDS011;1662;49.310;8.134;2022-10-17T10:29:02;9.50;;;4.70;;
3299;SDS011;1662;49.310;8.134;2022-10-17T10:31:36;4.60;;;3.90;;
3299;SDS011;1662;49.310;8.134;2022-10-17T10:34:11;5.00;;;4.10;;
3299;SDS011;1662;49.310;8.134;2022-10-17T10:36:52;4.90;;;4.40;;
3299;SDS011;1662;49.310;8.134;2022-10-17T10:41:53;6.43;;;3.90;;
3299;SDS011;1662;49.310;8.134;2022-10-17T10:44:23;3.93;;;3.73;;
3299;SDS011;1662;49.310;8.134;2022-10-17T10:49:38;4.10;;;3.90;;
3299;SDS011;1662;49.310;8.134;2022-10-17T10:52:06;3.80;;;3.50;;
3299;SDS011;1662;49.310;8.134;2022-10-17T10:54:36;4.17;;;3.97;;
3299;SDS011;1662;49.310;8.134;2022-10-17T10:57:05;3.77;;;3.47;;
3299;SDS011;1662;49.310;8.134;2022-10-17T10:59:49;7.47;;;4.00;;
3299;SDS011;1662;49.310;8.134;2022-10-17T11:02:29;5.63;;;4.27;;
3299;SDS011;1662;49.310;8.134;2022-10-17T11:05:16;6.23;;;3.80;;
3299;SDS011;1662;49.310;8.134;2022-10-17T11:10:18;5.50;;;3.83;;
3299;SDS011;1662;49.310;8.134;2022-10-17T11:12:50;3.73;;;3.53;;
3299;SDS011;1662;49.310;8.134;2022-10-17T11:18:21;3.57;;;3.27;;
3299;SDS011;1662;49.310;8.134;2022-10-17T11:24:01;6.17;;;3.13;;
3299;SDS011;1662;49.310;8.134;2022-10-17T11:27:01;4.50;;;3.33;;
3299;SDS011;1662;49.310;8.134;2022-10-17T11:29:32;2.93;;;2.73;;
3299;SDS011;1662;49.310;8.134;2022-10-17T11:32:02;3.53;;;3.23;;
3299;SDS011;1662;49.310;8.134;2022-10-17T11:34:38;7.17;;;3.33;;
3299;SDS011;1662;49.310;8.134;2022-10-17T11:37:11;3.77;;;3.47;;
3299;SDS011;1662;49.310;8.134;2022-10-17T11:39:49;3.40;;;3.20;;
3299;SDS011;1662;49.310;8.134;2022-10-17T11:42:24;3.50;;;3.20;;
3299;SDS011;1662;49.310;8.134;2022-10-17T11:44:52;4.23;;;3.73;;
3299;SDS011;1662;49.310;8.134;2022-10-17T11:52:43;3.43;;;3.00;;
3299;SDS011;1662;49.310;8.134;2022-10-17T11:55:15;5.50;;;3.10;;
3299;SDS011;1662;49.310;8.134;2022-10-17T11:57:55;4.73;;;4.10;;
3299;SDS011;1662;49.310;8.134;2022-10-17T12:00:30;9.40;;;3.47;;
3299;SDS011;1662;49.310;8.134;2022-10-17T12:08:34;6.03;;;3.90;;
3299;SDS011;1662;49.310;8.134;2022-10-17T12:14:33;3.27;;;3.17;;
3299;SDS011;1662;49.310;8.134;2022-10-17T12:17:02;6.30;;;4.00;;
3299;SDS011;1662;49.310;8.134;2022-10-17T12:19:35;3.30;;;3.00;;
3299;SDS011;1662;49.310;8.134;2022-10-17T12:22:21;4.40;;;3.67;;
3299;SDS011;1662;49.310;8.134;2022-10-17T12:24:54;5.10;;;3.83;;
3299;SDS011;1662;49.310;8.134;2022-10-17T12:30:02;4.93;;;3.40;;
3299;SDS011;1662;49.310;8.134;2022-10-17T12:32:29;12.03;;;4.43;;
3299;SDS011;1662;49.310;8.134;2022-10-17T12:34:55;3.17;;;3.03;;
3299;SDS011;1662;49.310;8.134;2022-10-17T12:37:58;5.73;;;3.97;;
3299;SDS011;1662;49.310;8.134;2022-10-17T12:40:59;4.80;;;4.20;;
3299;SDS011;1662;49.310;8.134;2022-10-17T12:45:53;4.70;;;4.27;;
3299;SDS011;1662;49.310;8.134;2022-10-17T12:54:11;4.23;;;3.93;;
3299;SDS011;1662;49.310;8.134;2022-10-17T12:56:21;4.57;;;4.23;;
3299;SDS011;1662;49.310;8.134;2022-10-17T12:58:58;5.63;;;4.90;;
3299;SDS011;1662;49.310;8.134;2022-10-17T13:01:28;4.47;;;4.23;;
3299;SDS011;1662;49.310;8.134;2022-10-17T13:03:56;4.80;;;3.87;;
3299;SDS011;1662;49.310;8.134;2022-10-17T13:06:27;7.53;;;4.30;;
3299;SDS011;1662;49.310;8.134;2022-10-17T13:08:59;5.53;;;4.47;;
3299;SDS011;1662;49.310;8.134;2022-10-17T13:11:29;4.50;;;4.10;;
3299;SDS011;1662;49.310;8.134;2022-10-17T13:13:59;4.00;;;3.80;;
3299;SDS011;1662;49.310;8.134;2022-10-17T13:18:59;5.00;;;4.70;;
3299;SDS011;1662;49.310;8.134;2022-10-17T13:21:26;5.50;;;4.83;;
3299;SDS011;1662;49.310;8.134;2022-10-17T13:23:52;4.20;;;3.93;;
3299;SDS011;1662;49.310;8.134;2022-10-17T13:31:34;4.87;;;4.47;;
3299;SDS011;1662;49.310;8.134;2022-10-17T13:34:12;5.03;;;4.63;;
3299;SDS011;1662;49.310;8.134;2022-10-17T13:36:47;5.67;;;4.80;;
3299;SDS011;1662;49.310;8.134;2022-10-17T13:39:23;8.03;;;5.50;;
3299;SDS011;1662;49.310;8.134;2022-10-17T13:41:51;6.17;;;5.60;;
3299;SDS011;1662;49.310;8.134;2022-10-17T13:44:21;5.30;;;5.07;;
3299;SDS011;1662;49.310;8.134;2022-10-17T13:46:51;6.07;;;5.60;;
3299;SDS011;1662;49.310;8.134;2022-10-17T13:52:03;6.20;;;5.70;;
3299;SDS011;1662;49.310;8.134;2022-10-17T13:54:34;5.07;;;4.83;;
3299;SDS011;1662;49.310;8.134;2022-10-17T13:57:01;6.13;;;5.70;;
3299;SDS011;1662;49.310;8.134;2022-10-17T13:59:40;5.80;;;5.40;;
3299;SDS011;1662;49.310;8.134;2022-10-17T14:02:12;6.77;;;5.40;;
3299;SDS011;1662;49.310;8.134;2022-10-17T14:04:40;5.93;;;5.43;;
3299;SDS011;1662;49.310;8.134;2022-10-17T14:07:05;6.23;;;5.63;;
3299;SDS011;1662;49.310;8.134;2022-10-17T14:09:44;5.57;;;5.17;;
3299;SDS011;1662;49.310;8.134;2022-10-17T14:12:11;6.37;;;5.73;;
3299;SDS011;1662;49.310;8.134;2022-10-17T14:14:37;8.20;;;5.40;;
3299;SDS011;1662;49.310;8.134;2022-10-17T14:17:23;7.20;;;4.70;;
3299;SDS011;1662;49.310;8.134;2022-10-17T14:19:53;5.23;;;4.80;;
3299;SDS011;1662;49.310;8.134;2022-10-17T14:22:27;5.77;;;5.27;;
3299;SDS011;1662;49.310;8.134;2022-10-17T14:24:57;6.07;;;5.30;;
3299;SDS011;1662;49.310;8.134;2022-10-17T14:27:30;6.33;;;4.67;;
3299;SDS011;1662;49.310;8.134;2022-10-17T14:29:57;5.67;;;4.90;;
3299;SDS011;1662;49.310;8.134;2022-10-17T14:32:28;4.80;;;4.50;;
3299;SDS011;1662;49.310;8.134;2022-10-17T14:34:57;5.23;;;4.80;;
3299;SDS011;1662;49.310;8.134;2022-10-17T14:37:43;5.80;;;5.10;;
3299;SDS011;1662;49.310;8.134;2022-10-17T14:40:18;5.50;;;5.07;;
3299;SDS011;1662;49.310;8.134;2022-10-17T14:42:46;7.13;;;5.13;;
3299;SDS011;1662;49.310;8.134;2022-10-17T14:45:14;4.90;;;4.50;;
3299;SDS011;1662;49.310;8.134;2022-10-17T14:47:47;5.60;;;4.77;;
3299;SDS011;1662;49.310;8.134;2022-10-17T14:52:40;7.27;;;5.50;;
3299;SDS011;1662;49.310;8.134;2022-10-17T14:58:20;4.60;;;4.10;;
3299;SDS011;1662;49.310;8.134;2022-10-17T15:00:49;4.67;;;4.23;;
3299;SDS011;1662;49.310;8.134;2022-10-17T15:03:15;11.13;;;4.87;;
3299;SDS011;1662;49.310;8.134;2022-10-17T15:05:43;6.50;;;4.30;;
3299;SDS011;1662;49.310;8.134;2022-10-17T15:08:12;4.80;;;4.50;;
3299;SDS011;1662;49.310;8.134;2022-10-17T15:10:40;4.97;;;4.53;;
3299;SDS011;1662;49.310;8.134;2022-10-17T15:13:11;5.23;;;4.73;;
3299;SDS011;1662;49.310;8.134;2022-10-17T15:15:38;9.33;;;4.70;;
3299;SDS011;1662;49.310;8.134;2022-10-17T15:18:04;8.50;;;4.60;;
3299;SDS011;1662;49.310;8.134;2022-10-17T15:20:34;5.40;;;5.03;;
3299;SDS011;1662;49.310;8.134;2022-10-17T15:23:00;5.77;;;5.03;;
3299;SDS011;1662;49.310;8.134;2022-10-17T15:25:27;5.20;;;4.70;;
3299;SDS011;1662;49.310;8.134;2022-10-17T15:27:54;8.50;;;5.10;;
3299;SDS011;1662;49.310;8.134;2022-10-17T15:30:27;10.57;;;6.00;;
3299;SDS011;1662;49.310;8.134;2022-10-17T15:32:58;5.77;;;4.97;;
3299;SDS011;1662;49.310;8.134;2022-10-17T15:35:24;5.63;;;5.13;;
3299;SDS011;1662;49.310;8.134;2022-10-17T15:37:51;4.87;;;4.47;;
3299;SDS011;1662;49.310;8.134;2022-10-17T15:40:20;5.10;;;4.70;;
3299;SDS011;1662;49.310;8.134;2022-10-17T15:42:48;6.90;;;4.60;;
3299;SDS011;1662;49.310;8.134;2022-10-17T15:45:15;5.13;;;4.63;;
3299;SDS011;1662;49.310;8.134;2022-10-17T15:47:42;5.60;;;3.80;;
3299;SDS011;1662;49.310;8.134;2022-10-17T15:50:14;7.13;;;4.23;;
3299;SDS011;1662;49.310;8.134;2022-10-17T15:52:40;5.57;;;4.23;;
3299;SDS011;1662;49.310;8.134;2022-10-17T15:55:07;5.13;;;4.33;;
3299;SDS011;1662;49.310;8.134;2022-10-17T15:57:41;9.23;;;4.40;;
3299;SDS011;1662;49.310;8.134;2022-10-17T16:00:15;5.07;;;4.50;;
3299;SDS011;1662;49.310;8.134;2022-10-17T16:02:43;6.93;;;4.20;;
3299;SDS011;1662;49.310;8.134;2022-10-17T16:05:30;5.03;;;4.30;;
3299;SDS011;1662;49.310;8.134;2022-10-17T16:07:55;4.30;;;4.00;;
3299;SDS011;1662;49.310;8.134;2022-10-17T16:10:21;5.43;;;3.90;;
3299;SDS011;1662;49.310;8.134;2022-10-17T16:12:47;5.13;;;4.63;;
3299;SDS011;1662;49.310;8.134;2022-10-17T16:15:15;8.00;;;4.50;;
3299;SDS011;1662;49.310;8.134;2022-10-17T16:17:49;4.97;;;4.43;;
3299;SDS011;1662;49.310;8.134;2022-10-17T16:20:22;5.20;;;4.70;;
3299;SDS011;1662;49.310;8.134;2022-10-17T16:22:48;7.30;;;4.77;;
3299;SDS011;1662;49.310;8.134;2022-10-17T16:25:19;6.70;;;4.77;;
3299;SDS011;1662;49.310;8.134;2022-10-17T16:27:48;8.83;;;4.27;;
3299;SDS011;1662;49.310;8.134;2022-10-17T16:30:15;5.40;;;4.77;;
3299;SDS011;1662;49.310;8.134;2022-10-17T16:32:41;12.13;;;4.93;;
3299;SDS011;1662;49.310;8.134;2022-10-17T16:35:08;10.17;;;4.57;;
3299;SDS011;1662;49.310;8.134;2022-10-17T16:37:35;8.67;;;4.40;;
3299;SDS011;1662;49.310;8.134;2022-10-17T16:40:01;11.07;;;4.53;;
3299;SDS011;1662;49.310;8.134;2022-10-17T16:42:28;9.53;;;5.57;;
3299;SDS011;1662;49.310;8.134;2022-10-17T16:44:54;7.10;;;5.10;;
3299;SDS011;1662;49.310;8.134;2022-10-17T16:47:19;6.70;;;6.07;;
3299;SDS011;1662;49.310;8.134;2022-10-17T16:49:45;8.47;;;6.23;;
3299;SDS011;1662;49.310;8.134;2022-10-17T16:52:13;8.90;;;6.20;;
3299;SDS011;1662;49.310;8.134;2022-10-17T16:54:39;9.70;;;6.37;;
3299;SDS011;1662;49.310;8.134;2022-10-17T16:57:04;6.47;;;5.77;;
3299;SDS011;1662;49.310;8.134;2022-10-17T16:59:30;15.03;;;5.70;;
3299;SDS011;1662;49.310;8.134;2022-10-17T17:01:56;5.83;;;5.10;;
3299;SDS011;1662;49.310;8.134;2022-10-17T17:04:21;6.73;;;5.40;;
3299;SDS011;1662;49.310;8.134;2022-10-17T17:06:47;5.93;;;5.33;;
3299;SDS011;1662;49.310;8.134;2022-10-17T17:09:13;13.03;;;5.50;;
3299;SDS011;1662;49.310;8.134;2022-10-17T17:11:38;5.70;;;4.87;;
3299;SDS011;1662;49.310;8.134;2022-10-17T17:14:04;5.23;;;4.73;;
3299;SDS011;1662;49.310;8.134;2022-10-17T17:16:31;6.20;;;5.60;;
3299;SDS011;1662;49.310;8.134;2022-10-17T17:19:02;5.60;;;4.53;;
3299;SDS011;1662;49.310;8.134;2022-10-17T17:21:30;6.03;;;5.13;;
3299;SDS011;1662;49.310;8.134;2022-10-17T17:35:43;15.00;;;6.10;;
3299;SDS011;1662;49.310;8.134;2022-10-17T17:38:08;7.17;;;6.20;;
3299;SDS011;1662;49.310;8.134;2022-10-17T17:40:36;6.70;;;6.10;;
3299;SDS011;1662;49.310;8.134;2022-10-17T17:43:09;6.13;;;5.33;;
3299;SDS011;1662;49.310;8.134;2022-10-17T17:45:35;10.90;;;5.77;;
3299;SDS011;1662;49.310;8.134;2022-10-17T17:48:03;9.07;;;5.00;;
3299;SDS011;1662;49.310;8.134;2022-10-17T17:50:29;6.17;;;5.57;;
3299;SDS011;1662;49.310;8.134;2022-10-17T17:52:59;6.23;;;5.50;;
3299;SDS011;1662;49.310;8.134;2022-10-17T17:55:25;6.50;;;5.53;;